Time;durP1;ratioP1;P1;durP2;ratioP2;P2;SDS_P1;SDS_P2;PMS_P1;PMS_P2;Temp;Humidity;BMP_temperature;BMP_pressure;BME280_temperature;BME280_humidity;BME280_pressure;Samples;Min_cycle;Max_cycle;Signal;HPM_P1;HPM_P2
2022/07/05 00:01:55;;;;;;;4.23;2.10;;;13.90;99.90;;;;;;4214054;28;20178;-67
2022/07/05 00:03:55;;;;;;;2.77;1.90;;;13.80;99.90;;;;;;4214662;28;20203;-68
2022/07/05 00:05:56;;;;;;;2.00;1.90;;;13.80;99.90;;;;;;4214495;28;20206;-68
2022/07/05 00:07:57;;;;;;;3.07;2.13;;;13.70;99.90;;;;;;4214732;28;20266;-67
2022/07/05 00:09:58;;;;;;;4.60;2.20;;;13.70;99.90;;;;;;4214553;28;20183;-68
2022/07/05 00:11:59;;;;;;;3.30;1.90;;;13.70;99.90;;;;;;4213997;28;20190;-66
2022/07/05 00:13:59;;;;;;;3.37;2.20;;;13.60;99.90;;;;;;4214329;28;20203;-67
2022/07/05 00:16:00;;;;;;;2.23;2.03;;;13.60;99.90;;;;;;4214311;28;20201;-67
2022/07/05 00:18:01;;;;;;;4.83;2.00;;;13.50;99.90;;;;;;4214319;28;20759;-67
2022/07/05 00:20:03;;;;;;;2.07;1.87;;;13.50;99.90;;;;;;4214276;28;20252;-67
2022/07/05 00:22:04;;;;;;;2.00;1.80;;;13.40;99.90;;;;;;4205089;28;20713;-67
2022/07/05 00:24:04;;;;;;;2.40;1.93;;;13.50;99.90;;;;;;4197650;28;20245;-67
2022/07/05 00:26:05;;;;;;;2.13;1.97;;;13.50;99.90;;;;;;4197455;28;20251;-66
2022/07/05 00:28:05;;;;;;;1.90;1.80;;;13.50;99.90;;;;;;4197528;28;20874;-67
2022/07/05 00:30:07;;;;;;;2.13;1.93;;;13.50;99.90;;;;;;4197993;28;20214;-67
2022/07/05 00:32:08;;;;;;;3.87;1.87;;;13.40;99.90;;;;;;4196866;28;20291;-67
2022/07/05 00:34:08;;;;;;;2.90;1.87;;;13.40;99.90;;;;;;4197986;28;20211;-67
2022/07/05 00:36:09;;;;;;;2.10;1.90;;;13.40;99.90;;;;;;4197757;28;20183;-68
2022/07/05 00:38:09;;;;;;;2.57;1.83;;;13.40;99.90;;;;;;4197719;28;20266;-67
2022/07/05 00:40:10;;;;;;;3.07;2.00;;;13.30;99.90;;;;;;4197570;28;20184;-67
2022/07/05 00:42:10;;;;;;;3.03;2.10;;;13.30;99.90;;;;;;4196837;28;20190;-67
2022/07/05 00:44:13;;;;;;;3.93;2.27;;;13.20;99.90;;;;;;4197203;28;20222;-66
2022/07/05 00:46:14;;;;;;;3.17;2.20;;;13.10;99.90;;;;;;4197241;28;20250;-66
2022/07/05 00:48:15;;;;;;;2.00;1.70;;;13.10;99.90;;;;;;4197150;28;20700;-68
2022/07/05 00:50:15;;;;;;;2.17;1.97;;;12.90;99.90;;;;;;4197150;28;20187;-67
2022/07/05 00:52:16;;;;;;;2.63;1.77;;;12.90;99.90;;;;;;4196417;28;20308;-67
2022/07/05 00:54:17;;;;;;;3.03;1.80;;;12.80;99.90;;;;;;4197074;28;20172;-69
2022/07/05 00:56:19;;;;;;;2.23;2.03;;;12.70;99.90;;;;;;4197088;28;20190;-68
2022/07/05 00:58:20;;;;;;;4.07;2.00;;;12.70;99.90;;;;;;4196866;28;20176;-68
2022/07/05 01:00:20;;;;;;;3.27;2.03;;;12.60;99.90;;;;;;4197025;28;20745;-67
2022/07/05 01:02:23;;;;;;;2.83;1.70;;;12.70;99.90;;;;;;4196364;28;20237;-68
2022/07/05 01:04:24;;;;;;;2.40;2.10;;;12.70;99.90;;;;;;4196757;28;20292;-68
2022/07/05 01:06:24;;;;;;;3.13;1.97;;;12.60;99.90;;;;;;4196876;28;20187;-67
2022/07/05 01:08:25;;;;;;;2.03;1.90;;;12.60;99.90;;;;;;4196670;28;20254;-68
2022/07/05 01:10:27;;;;;;;2.40;1.90;;;12.60;99.90;;;;;;4196670;28;20701;-68
2022/07/05 01:12:28;;;;;;;2.30;2.10;;;12.70;99.90;;;;;;4196306;28;20180;-68
2022/07/05 01:14:29;;;;;;;2.93;2.20;;;12.70;99.90;;;;;;4196692;28;20176;-67
2022/07/05 01:16:29;;;;;;;3.53;2.10;;;12.70;99.90;;;;;;4196508;28;20192;-68
2022/07/05 01:18:31;;;;;;;3.63;2.00;;;12.70;99.90;;;;;;4196577;28;20183;-69
2022/07/05 01:20:32;;;;;;;2.80;2.00;;;12.60;99.90;;;;;;4196399;28;20212;-67
2022/07/05 01:23:00;;;;;;;2.80;2.03;;;12.60;99.90;;;;;;4196041;28;20269;-68
2022/07/05 01:25:01;;;;;;;3.10;1.90;;;12.60;99.90;;;;;;4195358;28;20227;-68
2022/07/05 01:27:01;;;;;;;3.20;1.90;;;12.60;99.90;;;;;;4196037;28;20184;-68
2022/07/05 01:29:02;;;;;;;3.90;1.80;;;12.60;99.90;;;;;;4196516;28;20694;-68
2022/07/05 01:31:02;;;;;;;1.83;1.73;;;12.60;99.90;;;;;;4195703;28;20198;-67
2022/07/05 01:33:06;;;;;;;3.50;1.80;;;12.60;99.90;;;;;;4196388;28;20192;-68
2022/07/05 01:35:08;;;;;;;2.33;1.70;;;12.60;99.90;;;;;;4196360;28;20280;-67
2022/07/05 01:37:10;;;;;;;2.30;1.73;;;12.50;99.90;;;;;;4196169;28;20677;-68
2022/07/05 01:39:10;;;;;;;2.40;1.93;;;12.40;99.90;;;;;;4196440;28;20180;-68
2022/07/05 01:41:11;;;;;;;2.37;1.60;;;12.40;99.90;;;;;;4195538;28;20188;-68
2022/07/05 01:43:12;;;;;;;3.40;1.77;;;12.40;99.90;;;;;;4196138;28;20207;-68
2022/07/05 01:45:38;;;;;;;1.60;1.50;;;12.30;99.90;;;;;;4196100;28;20274;-69
2022/07/05 01:47:40;;;;;;;2.63;2.07;;;12.30;99.90;;;;;;4196107;28;20589;-69
2022/07/05 01:49:45;;;;;;;2.60;2.03;;;12.30;99.90;;;;;;4196213;28;20673;-67
2022/07/05 01:51:54;;;;;;;2.87;1.87;;;12.30;99.90;;;;;;4195970;28;20188;-68
2022/07/05 01:53:55;;;;;;;1.80;1.70;;;12.30;99.90;;;;;;4202160;28;20267;-68
2022/07/05 01:56:00;;;;;;;3.77;1.90;;;12.30;99.90;;;;;;4212829;28;20248;-67
2022/07/05 01:58:01;;;;;;;3.27;1.77;;;12.30;99.90;;;;;;4213001;28;20224;-69
2022/07/05 02:00:02;;;;;;;2.37;2.00;;;12.20;99.90;;;;;;4212880;28;20183;-68
2022/07/05 02:02:04;;;;;;;2.47;2.00;;;12.20;99.90;;;;;;4212191;28;20171;-70
2022/07/05 02:04:07;;;;;;;2.87;1.93;;;12.10;99.90;;;;;;4213072;28;20884;-68
2022/07/05 02:06:10;;;;;;;1.90;1.70;;;12.10;99.90;;;;;;4212770;28;20637;-68
2022/07/05 02:08:11;;;;;;;1.80;1.67;;;12.10;99.90;;;;;;4212723;28;20172;-68
2022/07/05 02:10:12;;;;;;;2.17;1.80;;;12.10;99.90;;;;;;4212793;28;20187;-68
2022/07/05 02:12:12;;;;;;;1.90;1.70;;;12.10;99.90;;;;;;4211955;28;20540;-68
2022/07/05 02:14:13;;;;;;;2.00;1.80;;;12.10;99.90;;;;;;4212543;28;20550;-68
2022/07/05 02:16:13;;;;;;;2.47;1.80;;;12.00;99.90;;;;;;4212735;28;20183;-68
2022/07/05 02:18:14;;;;;;;3.27;2.27;;;12.00;99.90;;;;;;4212512;28;20179;-68
2022/07/05 02:20:15;;;;;;;3.00;1.80;;;12.00;99.90;;;;;;4212356;28;20179;-68
2022/07/05 02:22:16;;;;;;;3.00;1.77;;;12.00;99.90;;;;;;4211922;28;20544;-69
2022/07/05 02:24:16;;;;;;;3.93;2.07;;;12.10;99.90;;;;;;4212336;28;20617;-68
2022/07/05 02:26:17;;;;;;;3.30;2.30;;;12.10;99.90;;;;;;4212481;28;20178;-68
2022/07/05 02:28:17;;;;;;;4.10;1.63;;;12.10;99.90;;;;;;4212484;28;20186;-68
2022/07/05 02:30:18;;;;;;;4.70;2.00;;;12.10;99.90;;;;;;4212534;28;20217;-69
2022/07/05 02:32:19;;;;;;;2.63;1.77;;;12.10;99.90;;;;;;4202611;28;20278;-68
2022/07/05 02:34:20;;;;;;;1.90;1.80;;;12.10;99.90;;;;;;4212210;28;20202;-69
2022/07/05 02:36:20;;;;;;;3.50;1.57;;;12.10;99.90;;;;;;4212374;28;20171;-68
2022/07/05 02:38:21;;;;;;;2.10;1.90;;;12.10;99.90;;;;;;4211453;28;20207;-69
2022/07/05 02:40:21;;;;;;;2.23;1.70;;;12.10;99.90;;;;;;4212356;28;20174;-69
2022/07/05 02:42:22;;;;;;;3.00;1.70;;;12.10;99.90;;;;;;4211454;28;20205;-68
2022/07/05 02:44:22;;;;;;;2.33;1.70;;;12.10;99.90;;;;;;4212056;28;20214;-68
2022/07/05 02:46:23;;;;;;;2.30;1.80;;;12.10;99.40;;;;;;4212048;28;20190;-68
2022/07/05 02:48:24;;;;;;;1.87;1.60;;;12.10;98.70;;;;;;4212143;28;20175;-68
2022/07/05 02:50:24;;;;;;;2.33;1.70;;;12.10;99.10;;;;;;4210822;28;20199;-67
2022/07/05 02:52:25;;;;;;;3.90;1.90;;;12.10;99.70;;;;;;4210971;28;20195;-67
2022/07/05 02:54:25;;;;;;;5.70;2.03;;;12.00;99.90;;;;;;4211804;28;20217;-69
2022/07/05 02:56:26;;;;;;;2.33;1.77;;;12.00;99.90;;;;;;4212262;28;20232;-69
2022/07/05 02:58:27;;;;;;;2.80;1.90;;;11.90;99.90;;;;;;4212080;28;20308;-67
2022/07/05 03:00:27;;;;;;;3.47;1.90;;;12.00;99.90;;;;;;4212184;28;20186;-68
2022/07/05 03:02:28;;;;;;;1.70;1.60;;;11.90;99.60;;;;;;4211280;28;20281;-68
2022/07/05 03:04:28;;;;;;;2.43;1.80;;;12.00;99.20;;;;;;4212056;28;20213;-68
2022/07/05 03:06:29;;;;;;;1.87;1.70;;;12.00;98.90;;;;;;4211926;28;20205;-68
2022/07/05 03:08:29;;;;;;;2.00;1.80;;;12.00;99.10;;;;;;4211830;28;20763;-68
2022/07/05 03:10:30;;;;;;;1.97;1.77;;;12.00;98.80;;;;;;4212265;28;20765;-68
2022/07/05 03:12:31;;;;;;;2.00;1.80;;;12.00;99.00;;;;;;4211175;28;20234;-68
2022/07/05 03:14:31;;;;;;;3.30;1.67;;;11.90;99.90;;;;;;4211927;28;20189;-68
2022/07/05 03:16:32;;;;;;;2.13;1.67;;;11.90;99.90;;;;;;4212131;28;20335;-69
2022/07/05 03:18:33;;;;;;;1.57;1.40;;;11.90;99.90;;;;;;4211726;28;20201;-68
2022/07/05 03:20:33;;;;;;;2.00;1.87;;;11.90;99.90;;;;;;4211681;28;20190;-67
2022/07/05 03:22:34;;;;;;;1.70;1.50;;;11.80;99.90;;;;;;4211182;28;20244;-68
2022/07/05 03:24:34;;;;;;;2.80;1.70;;;11.80;99.90;;;;;;4211857;28;20242;-68
2022/07/05 03:26:35;;;;;;;2.73;2.10;;;11.90;99.90;;;;;;4212183;28;20175;-67
2022/07/05 03:28:35;;;;;;;3.60;1.93;;;11.80;99.90;;;;;;4211868;28;20175;-67
2022/07/05 03:30:36;;;;;;;2.13;1.67;;;11.70;99.90;;;;;;4212013;28;20183;-68
2022/07/05 03:32:36;;;;;;;1.87;1.70;;;11.70;99.90;;;;;;4211189;28;20203;-68
2022/07/05 03:34:38;;;;;;;3.37;2.07;;;11.70;99.90;;;;;;4211695;28;20199;-68
2022/07/05 03:36:38;;;;;;;5.23;1.63;;;11.70;99.90;;;;;;4211805;28;20194;-68
2022/07/05 03:38:39;;;;;;;2.80;1.77;;;11.60;99.90;;;;;;4211495;28;20191;-68
2022/07/05 03:40:40;;;;;;;2.20;1.83;;;11.70;99.90;;;;;;4211317;28;20843;-67
2022/07/05 03:42:40;;;;;;;2.10;1.80;;;11.70;99.90;;;;;;4211025;28;20203;-68
2022/07/05 03:44:41;;;;;;;2.00;1.60;;;11.60;99.90;;;;;;4211234;28;20254;-68
2022/07/05 03:46:41;;;;;;;3.50;1.70;;;11.60;99.90;;;;;;4211382;28;20175;-68
2022/07/05 03:48:42;;;;;;;2.20;1.60;;;11.50;99.90;;;;;;4211452;28;20183;-68
2022/07/05 03:50:42;;;;;;;4.00;1.70;;;11.60;99.90;;;;;;4213549;28;20649;-66
2022/07/05 03:52:43;;;;;;;1.87;1.73;;;11.60;99.90;;;;;;4214469;28;20195;-68
2022/07/05 03:54:44;;;;;;;3.00;2.10;;;11.60;99.90;;;;;;4214180;28;20187;-68
2022/07/05 03:56:45;;;;;;;2.17;1.80;;;11.60;99.90;;;;;;4214323;28;20705;-67
2022/07/05 03:58:49;;;;;;;2.53;2.00;;;11.60;99.90;;;;;;4214538;28;20219;-68
2022/07/05 04:00:50;;;;;;;2.30;1.80;;;11.60;99.90;;;;;;4213786;28;20191;-68
2022/07/05 04:02:50;;;;;;;2.17;1.97;;;11.60;99.90;;;;;;4214384;28;20275;-68
2022/07/05 04:04:51;;;;;;;2.03;1.83;;;11.60;99.90;;;;;;4216238;28;20246;-68
2022/07/05 04:06:51;;;;;;;3.03;1.70;;;11.60;99.90;;;;;;4216849;28;20198;-68
2022/07/05 04:08:52;;;;;;;3.20;1.97;;;11.60;99.90;;;;;;4216957;28;20591;-68
2022/07/05 04:10:52;;;;;;;2.07;1.87;;;11.60;99.90;;;;;;4216477;28;20587;-67
2022/07/05 04:12:53;;;;;;;2.43;1.80;;;11.60;99.90;;;;;;4216505;28;20230;-68
2022/07/05 04:14:53;;;;;;;3.40;1.70;;;11.60;99.90;;;;;;4216252;28;20546;-68
2022/07/05 04:16:54;;;;;;;2.40;2.00;;;11.60;99.90;;;;;;4216215;28;20191;-68
2022/07/05 04:18:54;;;;;;;1.97;1.80;;;11.50;99.90;;;;;;4216870;28;20187;-68
2022/07/05 04:20:55;;;;;;;3.43;1.90;;;11.50;99.90;;;;;;4216262;28;20198;-68
2022/07/05 04:22:56;;;;;;;2.73;2.00;;;11.50;99.90;;;;;;4217152;28;20234;-68
2022/07/05 04:27:26;;;;;;;3.10;1.90;;;11.50;99.90;;;;;;4207943;28;20255;-68
2022/07/05 04:29:27;;;;;;;2.40;2.00;;;11.60;99.90;;;;;;4203607;28;20211;-67
2022/07/05 04:31:27;;;;;;;1.80;1.70;;;11.60;99.90;;;;;;4199315;28;20654;-68
2022/07/05 04:33:28;;;;;;;1.70;1.60;;;11.60;99.90;;;;;;4200528;28;20207;-68
2022/07/05 04:35:28;;;;;;;1.77;1.67;;;11.60;99.90;;;;;;4200268;28;20207;-69
2022/07/05 04:37:29;;;;;;;2.37;1.63;;;11.70;99.90;;;;;;4200242;28;20184;-68
2022/07/05 04:39:30;;;;;;;1.97;1.77;;;11.80;99.90;;;;;;4200191;28;20218;-68
2022/07/05 04:41:30;;;;;;;1.93;1.70;;;11.80;99.90;;;;;;4199526;28;20179;-69
2022/07/05 04:43:31;;;;;;;3.63;1.87;;;11.90;99.90;;;;;;4200832;28;20212;-69
2022/07/05 04:45:31;;;;;;;2.63;1.70;;;11.90;99.90;;;;;;4214109;28;20234;-70
2022/07/05 04:47:34;;;;;;;3.20;2.10;;;12.00;99.90;;;;;;4217439;28;20178;-70
2022/07/05 04:49:34;;;;;;;3.50;1.80;;;12.00;99.90;;;;;;4214821;28;20167;-69
2022/07/05 04:51:35;;;;;;;1.73;1.40;;;12.00;99.90;;;;;;4213445;28;20284;-69
2022/07/05 04:53:35;;;;;;;1.70;1.60;;;12.00;99.90;;;;;;4213879;28;20688;-68
2022/07/05 04:55:36;;;;;;;3.20;1.47;;;12.10;99.90;;;;;;4213701;28;20175;-69
2022/07/05 04:57:40;;;;;;;2.57;1.40;;;12.20;98.40;;;;;;4214138;28;20199;-69
2022/07/05 04:59:41;;;;;;;2.30;1.30;;;12.30;97.90;;;;;;4213717;28;20171;-69
2022/07/05 05:01:41;;;;;;;2.43;1.60;;;12.30;97.50;;;;;;4211966;28;20247;-67
2022/07/05 05:03:42;;;;;;;2.60;1.50;;;12.30;97.60;;;;;;4214026;28;20240;-68
2022/07/05 05:05:42;;;;;;;2.10;1.57;;;12.40;97.10;;;;;;4213612;28;20341;-68
2022/07/05 05:07:44;;;;;;;2.60;1.80;;;12.50;96.70;;;;;;4213586;28;20183;-69
2022/07/05 05:09:44;;;;;;;3.37;1.60;;;12.50;95.90;;;;;;4213839;28;20254;-68
2022/07/05 05:11:45;;;;;;;2.87;1.50;;;12.60;96.10;;;;;;4213036;28;20183;-69
2022/07/05 05:13:46;;;;;;;6.50;1.80;;;12.60;96.00;;;;;;4213648;28;20226;-69
2022/07/05 05:15:47;;;;;;;1.47;1.23;;;12.60;95.70;;;;;;4213615;28;20237;-69
2022/07/05 05:17:47;;;;;;;2.03;1.40;;;12.70;96.10;;;;;;4213752;28;20179;-69
2022/07/05 05:19:48;;;;;;;2.47;1.40;;;12.70;95.60;;;;;;4213499;28;20233;-69
2022/07/05 05:21:48;;;;;;;3.40;1.43;;;12.80;95.20;;;;;;4212804;28;20198;-69
2022/07/05 05:23:49;;;;;;;1.40;1.30;;;12.90;95.00;;;;;;4213184;28;20191;-69
2022/07/05 05:25:50;;;;;;;2.43;1.70;;;12.90;94.70;;;;;;4213070;28;20261;-69
2022/07/05 05:27:51;;;;;;;1.83;1.63;;;12.90;94.80;;;;;;4213405;28;20174;-69
2022/07/05 05:29:51;;;;;;;1.53;1.43;;;13.00;95.00;;;;;;4213222;28;20175;-70
2022/07/05 05:31:52;;;;;;;1.70;1.50;;;13.10;94.50;;;;;;4212225;28;20266;-69
2022/07/05 05:33:52;;;;;;;1.70;1.60;;;13.10;94.60;;;;;;4213027;28;20201;-68
2022/07/05 05:35:53;;;;;;;2.00;1.83;;;13.20;95.10;;;;;;4212958;28;20216;-69
2022/07/05 05:37:55;;;;;;;1.63;1.47;;;13.30;94.30;;;;;;4212940;28;20179;-70
2022/07/05 05:39:56;;;;;;;2.80;1.40;;;13.30;94.00;;;;;;4212823;28;20163;-70
2022/07/05 05:41:56;;;;;;;4.67;1.60;;;13.30;94.40;;;;;;4212417;28;20181;-69
2022/07/05 05:43:57;;;;;;;3.20;1.37;;;13.40;94.10;;;;;;4212782;28;20195;-69
2022/07/05 05:45:58;;;;;;;3.43;1.60;;;13.50;93.80;;;;;;4212874;28;20244;-69
2022/07/05 05:47:59;;;;;;;2.07;1.40;;;13.50;93.60;;;;;;4212738;28;20177;-69
2022/07/05 05:50:00;;;;;;;3.00;1.80;;;13.50;94.30;;;;;;4212722;28;20179;-70
2022/07/05 05:52:00;;;;;;;2.27;1.60;;;13.60;93.70;;;;;;4212280;28;20203;-69
2022/07/05 05:54:01;;;;;;;1.93;1.60;;;13.60;93.60;;;;;;4212499;28;20194;-71
2022/07/05 05:56:02;;;;;;;2.70;1.40;;;13.70;93.20;;;;;;4212415;28;20537;-70
2022/07/05 05:58:20;;;;;;;1.60;1.50;;;13.80;93.00;;;;;;4212525;28;20225;-70
2022/07/05 06:00:21;;;;;;;4.20;1.50;;;13.90;93.50;;;;;;4212650;28;20167;-69
2022/07/05 06:02:22;;;;;;;1.60;1.30;;;13.90;92.60;;;;;;4210474;28;20254;-70
2022/07/05 06:04:22;;;;;;;2.73;1.43;;;14.00;92.70;;;;;;4212423;28;20203;-70
2022/07/05 06:06:23;;;;;;;5.00;1.70;;;14.10;92.60;;;;;;4212552;28;20645;-70
2022/07/05 06:08:23;;;;;;;3.60;1.47;;;14.10;92.90;;;;;;4212481;28;20179;-69
2022/07/05 06:10:32;;;;;;;4.30;2.17;;;14.20;92.30;;;;;;4212247;28;20182;-70
2022/07/05 06:12:33;;;;;;;2.30;1.50;;;14.30;92.00;;;;;;4211647;28;20182;-69
2022/07/05 06:14:33;;;;;;;3.73;1.67;;;14.40;91.40;;;;;;4212187;28;20240;-69
2022/07/05 06:16:34;;;;;;;3.37;1.60;;;14.50;91.20;;;;;;4212315;28;20604;-70
2022/07/05 06:18:35;;;;;;;4.77;2.10;;;14.60;90.80;;;;;;4212323;28;20206;-70
2022/07/05 06:20:37;;;;;;;2.17;1.73;;;14.70;90.80;;;;;;4210254;28;20207;-70
2022/07/05 06:22:38;;;;;;;2.20;1.67;;;14.90;90.70;;;;;;4196073;28;20585;-70
2022/07/05 06:24:39;;;;;;;3.00;1.50;;;14.90;91.00;;;;;;4195546;28;20235;-69
2022/07/05 06:26:39;;;;;;;4.87;1.50;;;15.00;90.30;;;;;;4195639;28;20176;-67
2022/07/05 06:28:40;;;;;;;1.70;1.50;;;15.00;89.50;;;;;;4195667;28;20172;-69
2022/07/05 06:30:41;;;;;;;1.37;1.20;;;15.00;90.10;;;;;;4195131;28;20183;-69
2022/07/05 06:32:43;;;;;;;3.87;1.40;;;15.10;90.00;;;;;;4194932;28;20200;-70
2022/07/05 06:34:43;;;;;;;2.00;1.53;;;15.10;90.10;;;;;;4195499;28;20180;-69
2022/07/05 06:36:45;;;;;;;1.97;1.40;;;15.20;88.80;;;;;;4195291;28;20172;-68
2022/07/05 06:38:45;;;;;;;1.77;1.30;;;15.40;86.80;;;;;;4195413;28;20190;-68
2022/07/05 06:40:46;;;;;;;1.90;1.00;;;15.50;84.40;;;;;;4194409;28;20184;-69
2022/07/05 06:42:47;;;;;;;1.30;1.20;;;15.70;77.30;;;;;;4201412;28;20249;-69
2022/07/05 06:44:48;;;;;;;1.93;1.00;;;15.90;74.30;;;;;;4211593;28;20240;-69
2022/07/05 06:46:48;;;;;;;2.07;1.20;;;16.00;71.80;;;;;;4211872;28;20556;-69
2022/07/05 06:48:49;;;;;;;3.03;1.10;;;16.30;67.00;;;;;;4211856;28;20179;-69
2022/07/05 06:50:50;;;;;;;2.70;1.00;;;16.40;65.70;;;;;;4211225;28;20251;-69
2022/07/05 06:52:50;;;;;;;3.13;1.03;;;16.60;65.40;;;;;;4211745;28;20215;-69
2022/07/05 06:54:51;;;;;;;1.17;1.00;;;17.00;59.20;;;;;;4211820;28;20182;-69
2022/07/05 06:56:53;;;;;;;1.40;1.00;;;17.10;59.70;;;;;;4211784;28;20240;-70
2022/07/05 06:58:53;;;;;;;1.43;0.90;;;17.40;56.40;;;;;;4212133;28;20645;-70
2022/07/05 07:00:54;;;;;;;2.13;1.00;;;17.40;59.00;;;;;;4211262;28;20266;-70
2022/07/05 07:02:55;;;;;;;3.23;0.90;;;17.40;57.70;;;;;;4210243;28;20237;-69
2022/07/05 07:04:56;;;;;;;1.80;1.03;;;17.50;55.20;;;;;;4212118;28;20206;-69
2022/07/05 07:06:57;;;;;;;1.00;0.90;;;17.60;57.60;;;;;;4211839;28;20175;-69
2022/07/05 07:11:17;;;;;;;1.27;0.90;;;17.60;58.00;;;;;;4211294;28;20182;-68
2022/07/05 07:13:19;;;;;;;2.30;1.07;;;17.60;57.60;;;;;;4211775;28;20187;-69
2022/07/05 07:15:20;;;;;;;1.63;0.90;;;17.80;57.00;;;;;;4211743;28;20175;-67
2022/07/05 07:17:20;;;;;;;2.10;1.50;;;18.10;53.20;;;;;;4211850;28;20661;-67
2022/07/05 07:19:21;;;;;;;2.07;0.80;;;18.50;53.00;;;;;;4211683;28;20202;-67
2022/07/05 07:21:22;;;;;;;0.90;0.90;;;18.70;51.30;;;;;;4211182;28;20222;-67
2022/07/05 07:23:22;;;;;;;0.80;0.80;;;18.80;52.50;;;;;;4211736;28;20280;-67
2022/07/05 07:25:23;;;;;;;1.23;1.00;;;19.00;51.10;;;;;;4213852;28;20213;-67
2022/07/05 07:27:23;;;;;;;1.67;1.03;;;19.10;48.80;;;;;;4215248;28;20185;-68
2022/07/05 07:29:24;;;;;;;1.90;1.00;;;19.20;48.60;;;;;;4214954;28;20236;-68
2022/07/05 07:31:25;;;;;;;3.37;1.20;;;19.20;49.20;;;;;;4214395;28;20206;-68
2022/07/05 07:33:26;;;;;;;2.60;0.90;;;19.30;48.90;;;;;;4214922;28;20241;-69
2022/07/05 07:35:27;;;;;;;1.53;1.10;;;19.40;50.20;;;;;;4215194;28;20262;-68
2022/07/05 07:37:27;;;;;;;1.30;0.90;;;19.40;49.70;;;;;;4214812;28;20183;-68
2022/07/05 07:39:28;;;;;;;4.10;1.17;;;19.50;52.10;;;;;;4214991;28;20240;-69
2022/07/05 07:41:28;;;;;;;1.10;1.00;;;19.60;49.40;;;;;;4214316;28;20183;-68
2022/07/05 07:43:29;;;;;;;2.83;1.20;;;19.40;56.10;;;;;;4214789;28;20267;-68
2022/07/05 07:45:31;;;;;;;2.70;1.00;;;19.20;51.90;;;;;;4214782;28;20727;-66
2022/07/05 07:47:32;;;;;;;1.53;1.10;;;19.40;47.50;;;;;;4214839;28;20254;-69
2022/07/05 07:49:33;;;;;;;3.97;1.83;;;19.50;49.50;;;;;;4214850;28;20172;-71
2022/07/05 07:51:33;;;;;;;2.07;1.10;;;19.60;46.50;;;;;;4214069;28;20225;-68
2022/07/05 07:53:34;;;;;;;1.73;1.00;;;19.80;45.80;;;;;;4214595;28;21322;-69
2022/07/05 07:55:35;;;;;;;2.63;1.00;;;19.80;48.30;;;;;;4214676;28;20190;-69
2022/07/05 07:57:35;;;;;;;2.60;1.20;;;19.90;45.80;;;;;;4214502;28;20181;-69
2022/07/05 07:59:36;;;;;;;1.73;0.90;;;20.00;45.30;;;;;;4214525;28;20538;-69
2022/07/05 08:01:37;;;;;;;1.47;1.00;;;20.10;43.30;;;;;;4213526;28;20232;-69
2022/07/05 08:03:38;;;;;;;2.27;1.10;;;20.10;45.20;;;;;;4214478;28;20223;-69
2022/07/05 08:05:39;;;;;;;2.27;1.67;;;20.20;47.50;;;;;;4214362;28;20211;-69
2022/07/05 08:07:39;;;;;;;5.93;1.07;;;20.20;46.60;;;;;;4214410;28;20282;-69
2022/07/05 08:09:40;;;;;;;4.93;1.10;;;20.20;44.10;;;;;;4214390;28;20246;-68
2022/07/05 08:11:41;;;;;;;1.13;1.00;;;20.10;44.80;;;;;;4213593;28;20198;-69
2022/07/05 08:13:42;;;;;;;6.63;1.47;;;20.30;45.60;;;;;;4214483;28;20207;-68
2022/07/05 08:15:42;;;;;;;1.90;1.10;;;20.40;44.40;;;;;;4213033;28;20208;-68
2022/07/05 08:21:30;;;;;;;9.53;9.10;;;20.30;45.20;;;;;;4214350;28;20183;-68
2022/07/05 08:22:23;;;;;;;1.40;1.20;;;20.20;43.90;;;;;;4213569;28;20281;-68
2022/07/05 08:24:24;;;;;;;1.70;1.60;;;20.30;43.30;;;;;;4214037;28;20201;-67
2022/07/05 08:26:25;;;;;;;1.43;1.13;;;20.20;43.50;;;;;;4214209;28;20254;-68
2022/07/05 08:28:26;;;;;;;1.77;1.10;;;20.30;47.80;;;;;;4213909;28;20198;-68
2022/07/05 08:30:26;;;;;;;5.63;1.30;;;20.50;44.30;;;;;;4211530;28;20262;-68
2022/07/05 08:32:27;;;;;;;4.33;1.37;;;20.60;43.60;;;;;;4196679;28;20223;-68
2022/07/05 08:34:27;;;;;;;2.07;1.00;;;20.50;43.60;;;;;;4197490;28;20167;-68
2022/07/05 08:36:28;;;;;;;2.03;1.40;;;20.70;44.40;;;;;;4195936;28;20746;-68
2022/07/05 08:38:29;;;;;;;4.03;3.20;;;20.70;45.70;;;;;;4197359;28;20600;-67
2022/07/05 08:40:32;;;;;;;1.43;1.03;;;20.80;44.30;;;;;;4197220;28;20701;-68
2022/07/05 08:42:34;;;;;;;19.27;18.10;;;20.80;43.80;;;;;;4196691;28;20195;-67
2022/07/05 08:44:38;;;;;;;4.17;1.43;;;20.70;42.70;;;;;;4197242;28;20230;-67
2022/07/05 08:46:40;;;;;;;1.30;1.20;;;20.90;43.20;;;;;;4197041;28;20707;-67
2022/07/05 08:48:47;;;;;;;2.50;1.10;;;21.00;43.20;;;;;;4197068;28;20616;-69
2022/07/05 08:50:51;;;;;;;1.50;1.40;;;20.90;42.10;;;;;;4196372;28;20225;-68
2022/07/05 08:52:52;;;;;;;2.00;1.40;;;21.10;42.70;;;;;;4196966;28;20211;-68
2022/07/05 08:54:54;;;;;;;2.93;1.53;;;21.20;41.70;;;;;;4196829;28;20180;-68
2022/07/05 08:56:54;;;;;;;9.00;8.30;;;21.20;42.70;;;;;;4196860;28;20663;-67
2022/07/05 08:58:55;;;;;;;2.50;1.00;;;21.40;42.30;;;;;;4196829;28;20176;-68
2022/07/05 09:00:57;;;;;;;3.63;1.10;;;21.50;42.90;;;;;;4196172;28;20188;-68
2022/07/05 09:02:58;;;;;;;2.50;2.33;;;21.60;42.80;;;;;;4196662;28;20277;-67
2022/07/05 09:04:59;;;;;;;3.63;3.43;;;21.90;41.70;;;;;;4196766;28;20215;-68
2022/07/05 09:07:07;;;;;;;5.10;4.80;;;21.90;42.10;;;;;;4196685;28;20229;-68
2022/07/05 09:09:08;;;;;;;3.53;1.10;;;22.00;41.00;;;;;;4196788;28;20186;-67
2022/07/05 09:11:14;;;;;;;3.20;1.30;;;21.90;41.10;;;;;;4196152;28;20176;-68
2022/07/05 09:13:14;;;;;;;4.20;1.20;;;21.50;40.40;;;;;;4196631;28;20900;-68
2022/07/05 09:15:15;;;;;;;1.97;1.87;;;21.40;42.80;;;;;;4196555;28;20191;-68
2022/07/05 09:17:16;;;;;;;1.87;1.50;;;21.50;42.60;;;;;;4196512;28;20646;-67
2022/07/05 09:19:16;;;;;;;2.20;1.30;;;21.70;42.30;;;;;;4196603;28;20184;-67
2022/07/05 09:21:23;;;;;;;2.47;2.00;;;21.90;40.90;;;;;;4197322;28;20253;-68
2022/07/05 09:23:23;;;;;;;3.10;2.97;;;22.20;45.60;;;;;;4199100;28;20209;-68
2022/07/05 09:25:30;;;;;;;2.57;1.10;;;22.10;41.50;;;;;;4199220;28;20226;-66
2022/07/05 09:27:32;;;;;;;2.40;1.90;;;22.40;41.30;;;;;;4199174;28;20589;-67
2022/07/05 09:29:33;;;;;;;1.97;1.03;;;22.40;40.70;;;;;;4199284;28;20191;-68
2022/07/05 09:31:41;;;;;;;4.67;1.20;;;22.40;41.90;;;;;;4198593;28;20237;-68
2022/07/05 09:33:50;;;;;;;1.40;1.30;;;22.70;40.70;;;;;;4199443;28;20195;-67
2022/07/05 09:35:57;;;;;;;4.43;4.03;;;23.10;40.10;;;;;;4199116;28;20179;-68
2022/07/05 09:37:58;;;;;;;1.83;1.73;;;22.90;38.30;;;;;;4199003;28;20182;-68
2022/07/05 09:39:58;;;;;;;2.87;2.57;;;23.00;39.70;;;;;;4199038;28;20188;-67
2022/07/05 09:42:08;;;;;;;2.03;1.30;;;22.90;39.00;;;;;;4198575;28;20190;-67
2022/07/05 09:44:09;;;;;;;2.40;2.27;;;22.70;40.30;;;;;;4198943;28;20206;-67
2022/07/05 09:46:09;;;;;;;1.37;1.10;;;22.30;39.80;;;;;;4199154;28;20188;-68
2022/07/05 09:48:11;;;;;;;2.50;2.30;;;22.60;43.60;;;;;;4198492;28;20180;-68
2022/07/05 09:50:13;;;;;;;4.23;3.93;;;23.00;39.90;;;;;;4198772;28;20213;-68
2022/07/05 09:52:31;;;;;;;1.90;1.33;;;23.00;39.80;;;;;;4198154;28;20164;-68
2022/07/05 09:54:32;;;;;;;2.27;2.07;;;23.00;38.30;;;;;;4198847;28;20171;-68
2022/07/05 09:56:48;;;;;;;1.37;1.23;;;23.20;37.80;;;;;;4198512;28;20248;-66
2022/07/05 09:58:48;;;;;;;2.13;1.93;;;23.10;38.30;;;;;;4211720;28;20200;-68
2022/07/05 10:00:49;;;;;;;1.47;1.20;;;22.80;37.80;;;;;;4214872;28;20662;-68
2022/07/05 10:02:52;;;;;;;3.97;1.53;;;23.10;37.90;;;;;;4215460;28;20708;-67
2022/07/05 10:05:07;;;;;;;1.60;1.00;;;23.70;37.50;;;;;;4215271;28;20206;-68
2022/07/05 10:07:08;;;;;;;2.67;1.47;;;23.60;34.40;;;;;;4215514;28;20606;-68
2022/07/05 10:09:10;;;;;;;1.27;1.17;;;23.80;36.00;;;;;;4214826;28;20183;-68
2022/07/05 10:11:11;;;;;;;1.40;1.30;;;23.90;36.00;;;;;;4211659;28;20182;-68
2022/07/05 10:13:14;;;;;;;1.90;1.30;;;24.20;36.60;;;;;;4212336;28;20183;-68
2022/07/05 10:15:20;;;;;;;1.37;1.20;;;24.70;36.10;;;;;;4212383;28;20206;-68
2022/07/05 10:17:21;;;;;;;1.27;1.10;;;25.00;36.60;;;;;;4212225;28;20182;-67
2022/07/05 10:19:22;;;;;;;5.27;4.93;;;25.10;33.90;;;;;;4212228;28;20595;-68
2022/07/05 10:21:26;;;;;;;2.20;2.00;;;24.70;33.90;;;;;;4211380;28;20226;-67
2022/07/05 10:23:27;;;;;;;1.77;1.37;;;24.60;33.70;;;;;;4212043;28;20864;-68
2022/07/05 10:25:28;;;;;;;1.40;1.30;;;24.60;34.60;;;;;;4211969;28;20205;-67
2022/07/05 10:27:32;;;;;;;1.60;1.40;;;24.80;34.60;;;;;;4212088;28;20207;-67
2022/07/05 10:29:33;;;;;;;2.67;1.60;;;25.00;32.80;;;;;;4212125;28;20588;-67
2022/07/05 10:31:34;;;;;;;1.47;1.37;;;25.20;33.20;;;;;;4211338;28;20182;-68
2022/07/05 10:33:35;;;;;;;5.70;2.70;;;25.30;34.10;;;;;;4210121;28;20202;-67
2022/07/05 10:35:36;;;;;;;1.50;1.40;;;25.50;32.50;;;;;;4197200;28;20179;-67
2022/07/05 10:37:36;;;;;;;2.07;1.87;;;26.00;34.10;;;;;;4195268;28;20622;-67
2022/07/05 10:39:37;;;;;;;3.67;2.60;;;25.90;33.20;;;;;;4195395;28;20224;-67
2022/07/05 10:41:39;;;;;;;8.63;8.13;;;25.70;32.70;;;;;;4194584;28;20187;-67